Kanarraville, Utah
Current Conditions -  °F | °C
As of 1:53 PM on Friday 21 Nov 2014 (Local Time) from KCDC Reporting Station
Clear Clear  
Wind Chill: 53°   Ceiling: Unl
Heat Index: 53°   Visibility: 10mi
Dew Point: 24°   Wind: 5mph
Humidity: 32%   Direction: 20°NNE
Pressure: 29.99"   Gusts: NA
Location:  37.54°N, 113.18°W
Report Text: KCDC 212053Z AUTO 02004KT 10SM CLR 12/M04 A2999 RMK AO2 SLP137 T01171044 56009
Loading
Personal Weather Stations






























Interactive Weather Map New forecast layout! Learn more

10-Day Weather Forecast

Advertisements
Track Severe Weather on mobile